Time;durP1;ratioP1;P1;durP2;ratioP2;P2;SDS_P1;SDS_P2;PMS_P1;PMS_P2;Temp;Humidity;BMP_temperature;BMP_pressure;BME280_temperature;BME280_humidity;BME280_pressure;Samples;Min_cycle;Max_cycle;Signal;HPM_P1;HPM_P2
2023/03/25 00:01:46;;;;;;;7.53;0.55;;;;;;;;;;5006096;28;20045;-44
2023/03/25 00:04:16;;;;;;;7.82;0.40;;;;;;;;;;4996265;28;20041;-45
2023/03/25 00:06:44;;;;;;;7.63;0.55;;;;;;;;;;5019341;28;20442;-45
2023/03/25 00:09:12;;;;;;;5.18;0.45;;;;;;;;;;5008887;28;20701;-44
2023/03/25 00:11:40;;;;;;;3.27;0.40;;;;;;;;;;5006465;28;20044;-45
2023/03/25 00:14:11;;;;;;;5.00;0.50;;;;;;;;;;5006935;28;20037;-45
2023/03/25 00:16:38;;;;;;;6.15;0.60;;;;;;;;;;5006234;28;20041;-45
2023/03/25 00:19:08;;;;;;;4.75;0.50;;;;;;;;;;4990075;28;20041;-44
2023/03/25 00:21:36;;;;;;;7.43;0.57;;;;;;;;;;5019799;28;20446;-46
2023/03/25 00:24:03;;;;;;;8.50;0.47;;;;;;;;;;5004071;28;20044;-45
2023/03/25 00:26:31;;;;;;;9.93;0.63;;;;;;;;;;4995923;28;20113;-45
2023/03/25 00:28:59;;;;;;;11.10;0.63;;;;;;;;;;5011627;28;20041;-45
2023/03/25 00:31:28;;;;;;;7.55;0.70;;;;;;;;;;5005105;28;20048;-45
2023/03/25 00:33:56;;;;;;;9.00;0.70;;;;;;;;;;5030178;28;20498;-45
2023/03/25 00:36:24;;;;;;;7.80;0.53;;;;;;;;;;5012232;28;20641;-47
2023/03/25 00:38:52;;;;;;;4.38;0.50;;;;;;;;;;5018933;28;20040;-44
2023/03/25 00:41:21;;;;;;;4.70;0.40;;;;;;;;;;4996283;28;20094;-47
2023/03/25 00:43:50;;;;;;;4.30;0.85;;;;;;;;;;5006023;28;20052;-47
2023/03/25 00:46:26;;;;;;;6.70;0.50;;;;;;;;;;5008696;28;20033;-48
2023/03/25 00:48:56;;;;;;;6.53;0.43;;;;;;;;;;5015741;28;20045;-45
2023/03/25 00:51:24;;;;;;;7.38;0.52;;;;;;;;;;5010548;28;20566;-46
2023/03/25 00:53:52;;;;;;;4.70;0.40;;;;;;;;;;5004756;28;20084;-48
2023/03/25 00:56:21;;;;;;;7.15;0.50;;;;;;;;;;5000511;28;20804;-46
2023/03/25 00:58:48;;;;;;;3.72;0.32;;;;;;;;;;5016351;28;20709;-46
2023/03/25 01:01:17;;;;;;;4.33;0.90;;;;;;;;;;4991027;28;20071;-45
2023/03/25 01:03:44;;;;;;;5.68;0.52;;;;;;;;;;5016021;28;20037;-44
2023/03/25 01:06:15;;;;;;;6.53;1.02;;;;;;;;;;4996642;28;20060;-44
2023/03/25 01:08:43;;;;;;;5.25;0.60;;;;;;;;;;5014780;28;20083;-46
2023/03/25 01:11:17;;;;;;;11.77;1.17;;;;;;;;;;5010035;28;20040;-47
2023/03/25 01:13:45;;;;;;;10.40;1.00;;;;;;;;;;5009588;28;20045;-45
2023/03/25 01:16:13;;;;;;;6.30;1.13;;;;;;;;;;5012544;28;20051;-47
2023/03/25 01:18:41;;;;;;;4.18;0.73;;;;;;;;;;5005801;28;20136;-44
2023/03/25 01:21:09;;;;;;;11.50;0.57;;;;;;;;;;5014274;28;20045;-45
2023/03/25 01:23:40;;;;;;;5.55;0.52;;;;;;;;;;5008840;28;20053;-46
2023/03/25 01:26:08;;;;;;;6.20;0.70;;;;;;;;;;4998731;28;20112;-45
2023/03/25 01:28:35;;;;;;;8.48;0.90;;;;;;;;;;5014749;28;20326;-45
2023/03/25 01:31:04;;;;;;;9.88;0.60;;;;;;;;;;5007018;28;20061;-45
2023/03/25 01:33:32;;;;;;;9.10;0.82;;;;;;;;;;5009464;28;20052;-46
2023/03/25 01:36:08;;;;;;;8.60;0.55;;;;;;;;;;5010474;28;20599;-46
2023/03/25 01:38:36;;;;;;;8.37;0.60;;;;;;;;;;5009080;28;20037;-45
2023/03/25 01:41:12;;;;;;;6.97;0.73;;;;;;;;;;5015736;28;20041;-44
2023/03/25 01:43:40;;;;;;;7.65;0.98;;;;;;;;;;5011235;28;20571;-47
2023/03/25 01:46:12;;;;;;;7.68;0.65;;;;;;;;;;5014722;28;20060;-45
2023/03/25 01:48:45;;;;;;;13.82;1.40;;;;;;;;;;5006454;28;20057;-46
2023/03/25 01:51:14;;;;;;;7.10;1.53;;;;;;;;;;5004301;28;20033;-45
2023/03/25 01:53:43;;;;;;;8.88;0.75;;;;;;;;;;5026185;28;20037;-45
2023/03/25 01:56:13;;;;;;;13.98;1.13;;;;;;;;;;5009726;28;20512;-44
2023/03/25 01:58:41;;;;;;;3.42;0.65;;;;;;;;;;5019285;28;20491;-44
2023/03/25 02:01:12;;;;;;;4.30;0.55;;;;;;;;;;5013005;28;20680;-45
2023/03/25 02:03:45;;;;;;;9.60;0.80;;;;;;;;;;5012482;28;20068;-46
2023/03/25 02:06:15;;;;;;;10.07;0.95;;;;;;;;;;5012879;28;20472;-45
2023/03/25 02:08:43;;;;;;;14.07;1.20;;;;;;;;;;5022625;28;20043;-45
2023/03/25 02:11:12;;;;;;;6.70;0.65;;;;;;;;;;5015280;28;20128;-44
2023/03/25 02:13:41;;;;;;;13.10;1.00;;;;;;;;;;5006660;28;20112;-45
2023/03/25 02:16:18;;;;;;;10.87;0.90;;;;;;;;;;5017084;28;20153;-48
2023/03/25 02:18:50;;;;;;;8.10;1.25;;;;;;;;;;4998675;28;20056;-47
2023/03/25 02:21:32;;;;;;;11.35;0.98;;;;;;;;;;5007041;28;20069;-46
2023/03/25 02:24:13;;;;;;;10.43;1.20;;;;;;;;;;5007245;28;20401;-46
2023/03/25 02:27:13;;;;;;;13.48;1.35;;;;;;;;;;5005574;28;20064;-45
2023/03/25 02:30:00;;;;;;;5.97;0.70;;;;;;;;;;5008587;28;20122;-45
2023/03/25 02:32:37;;;;;;;10.40;1.52;;;;;;;;;;5016749;28;20053;-44
2023/03/25 02:35:15;;;;;;;9.98;0.93;;;;;;;;;;5008147;28;20029;-45
2023/03/25 02:37:52;;;;;;;7.75;0.90;;;;;;;;;;5007680;28;20076;-44
2023/03/25 02:40:30;;;;;;;8.77;0.88;;;;;;;;;;5010358;28;20069;-45
2023/03/25 02:43:01;;;;;;;9.83;1.33;;;;;;;;;;4993436;28;20041;-43
2023/03/25 02:45:31;;;;;;;4.78;0.80;;;;;;;;;;5024727;28;20045;-44
2023/03/25 02:48:01;;;;;;;7.38;1.08;;;;;;;;;;5015646;28;20041;-45
2023/03/25 02:50:36;;;;;;;11.00;1.33;;;;;;;;;;5021091;28;20541;-45
2023/03/25 02:53:09;;;;;;;17.75;1.23;;;;;;;;;;5006915;28;20049;-45
2023/03/25 02:55:40;;;;;;;9.93;1.07;;;;;;;;;;5003013;28;20156;-44
2023/03/25 02:58:10;;;;;;;10.85;1.23;;;;;;;;;;4985204;28;20047;-45
2023/03/25 03:00:38;;;;;;;6.38;0.52;;;;;;;;;;5029069;28;20045;-45
2023/03/25 03:03:07;;;;;;;11.43;1.15;;;;;;;;;;5015506;28;20348;-46
2023/03/25 03:05:38;;;;;;;10.40;1.38;;;;;;;;;;5019646;28;20462;-44
2023/03/25 03:08:17;;;;;;;8.80;1.43;;;;;;;;;;5025690;28;20125;-46
2023/03/25 03:10:49;;;;;;;6.88;1.10;;;;;;;;;;5014063;28;20851;-45
2023/03/25 03:13:26;;;;;;;13.57;1.25;;;;;;;;;;5002895;28;20041;-44
2023/03/25 03:15:57;;;;;;;11.60;1.27;;;;;;;;;;4990592;28;20341;-46
2023/03/25 03:18:33;;;;;;;12.07;1.30;;;;;;;;;;5035150;28;20091;-45
2023/03/25 03:21:07;;;;;;;15.13;1.20;;;;;;;;;;5018417;28;20076;-46
2023/03/25 03:23:41;;;;;;;15.50;1.20;;;;;;;;;;4992657;28;20419;-44
2023/03/25 03:26:11;;;;;;;12.13;1.50;;;;;;;;;;5002531;28;20037;-45
2023/03/25 03:28:44;;;;;;;14.90;1.52;;;;;;;;;;5010560;28;20029;-45
2023/03/25 03:31:15;;;;;;;11.70;1.02;;;;;;;;;;5000944;28;20482;-45
2023/03/25 03:34:04;;;;;;;10.57;1.20;;;;;;;;;;4989344;28;20292;-45
2023/03/25 03:36:35;;;;;;;10.13;0.93;;;;;;;;;;5023889;28;20049;-44
2023/03/25 03:39:08;;;;;;;13.70;1.20;;;;;;;;;;5021321;28;20156;-43
2023/03/25 03:41:38;;;;;;;12.48;1.70;;;;;;;;;;5012484;28;20198;-46
2023/03/25 03:44:07;;;;;;;17.90;1.48;;;;;;;;;;5014780;28;21450;-46
2023/03/25 03:46:37;;;;;;;8.33;1.10;;;;;;;;;;5018447;28;20055;-45
2023/03/25 03:49:07;;;;;;;9.02;1.15;;;;;;;;;;4968868;28;20565;-44
2023/03/25 03:51:36;;;;;;;13.85;1.45;;;;;;;;;;5025681;28;20052;-48
2023/03/25 03:54:07;;;;;;;26.90;1.20;;;;;;;;;;5013125;28;20471;-45
2023/03/25 03:56:38;;;;;;;13.23;1.80;;;;;;;;;;5019589;28;20361;-44
2023/03/25 03:59:08;;;;;;;6.73;0.63;;;;;;;;;;5014933;28;20044;-46
2023/03/25 04:01:44;;;;;;;9.57;1.23;;;;;;;;;;4992809;28;21003;-46
2023/03/25 04:04:14;;;;;;;9.60;1.45;;;;;;;;;;5012587;28;20052;-48
2023/03/25 04:06:45;;;;;;;6.70;0.60;;;;;;;;;;5012756;28;20710;-45
2023/03/25 04:09:18;;;;;;;10.68;0.75;;;;;;;;;;5026098;28;20128;-44
2023/03/25 04:11:53;;;;;;;9.33;1.17;;;;;;;;;;4988745;28;20029;-44
2023/03/25 04:14:20;;;;;;;10.60;1.60;;;;;;;;;;5010419;28;20063;-44
2023/03/25 04:16:48;;;;;;;11.77;1.00;;;;;;;;;;5009782;28;20037;-45
2023/03/25 04:19:17;;;;;;;11.48;1.25;;;;;;;;;;5003023;28;21059;-45
2023/03/25 04:21:46;;;;;;;5.75;1.10;;;;;;;;;;5013238;28;20041;-46
2023/03/25 04:24:18;;;;;;;9.83;1.10;;;;;;;;;;5020175;28;20115;-45
2023/03/25 04:26:46;;;;;;;15.68;1.50;;;;;;;;;;5016908;28;20041;-43
2023/03/25 04:29:14;;;;;;;14.98;1.13;;;;;;;;;;5009339;28;20041;-46
2023/03/25 04:31:44;;;;;;;15.32;2.53;;;;;;;;;;5010136;28;20398;-45
2023/03/25 04:34:13;;;;;;;14.73;1.35;;;;;;;;;;5002705;28;20780;-45
2023/03/25 04:36:42;;;;;;;10.07;0.80;;;;;;;;;;5009492;28;20499;-44
2023/03/25 04:39:11;;;;;;;18.13;1.60;;;;;;;;;;5008897;28;20043;-46
2023/03/25 04:41:40;;;;;;;15.07;1.92;;;;;;;;;;5006024;28;20558;-45
2023/03/25 04:44:07;;;;;;;14.18;0.80;;;;;;;;;;5006204;28;20037;-45
2023/03/25 04:46:36;;;;;;;10.95;1.02;;;;;;;;;;5004121;28;20069;-45
2023/03/25 04:49:04;;;;;;;7.53;0.57;;;;;;;;;;4994937;28;20033;-44
2023/03/25 04:51:32;;;;;;;7.70;0.90;;;;;;;;;;5016447;28;20433;-44
2023/03/25 04:54:00;;;;;;;12.23;1.08;;;;;;;;;;4998365;28;20116;-46
2023/03/25 04:56:28;;;;;;;12.00;1.38;;;;;;;;;;5012064;28;20056;-46
2023/03/25 04:58:57;;;;;;;15.13;1.85;;;;;;;;;;5008012;28;20056;-44
2023/03/25 05:01:29;;;;;;;8.13;1.10;;;;;;;;;;5000343;28;20562;-44
2023/03/25 05:04:03;;;;;;;8.55;0.75;;;;;;;;;;5022697;28;20040;-46
2023/03/25 05:06:32;;;;;;;6.20;1.10;;;;;;;;;;5022360;28;20037;-46
2023/03/25 05:09:03;;;;;;;10.70;1.08;;;;;;;;;;4997186;28;20045;-45
2023/03/25 05:11:31;;;;;;;12.55;1.13;;;;;;;;;;5008257;28;20049;-47
2023/03/25 05:14:00;;;;;;;14.20;2.03;;;;;;;;;;4997162;28;20037;-45
2023/03/25 05:16:28;;;;;;;10.85;0.90;;;;;;;;;;5011822;28;20167;-44
2023/03/25 05:18:55;;;;;;;12.55;0.98;;;;;;;;;;4997676;28;20389;-44
2023/03/25 05:21:25;;;;;;;8.80;1.00;;;;;;;;;;5015773;28;20063;-46
2023/03/25 05:23:52;;;;;;;11.05;1.65;;;;;;;;;;5008864;28;20338;-46
2023/03/25 05:26:20;;;;;;;10.63;1.13;;;;;;;;;;5012438;28;20045;-45
2023/03/25 05:28:50;;;;;;;8.55;0.90;;;;;;;;;;5005188;28;20267;-45
2023/03/25 05:31:19;;;;;;;16.27;1.45;;;;;;;;;;5010296;28;20128;-45
2023/03/25 05:33:50;;;;;;;7.57;0.88;;;;;;;;;;5011681;28;20040;-46
2023/03/25 05:36:18;;;;;;;10.40;0.85;;;;;;;;;;5012759;28;20072;-44
2023/03/25 05:38:47;;;;;;;5.70;0.90;;;;;;;;;;4988450;28;20060;-45
2023/03/25 05:41:15;;;;;;;12.23;1.33;;;;;;;;;;5027345;28;20041;-44
2023/03/25 05:43:46;;;;;;;7.22;1.10;;;;;;;;;;5010427;28;20045;-44
2023/03/25 05:46:14;;;;;;;11.00;0.75;;;;;;;;;;5013197;28;22444;-45
2023/03/25 05:48:43;;;;;;;5.43;0.85;;;;;;;;;;5010712;28;20378;-44
2023/03/25 05:51:12;;;;;;;11.63;2.23;;;;;;;;;;5011580;28;20487;-47
2023/03/25 05:53:40;;;;;;;8.73;1.05;;;;;;;;;;4997452;28;20132;-44
2023/03/25 05:56:08;;;;;;;8.10;1.08;;;;;;;;;;5009953;28;20036;-44
2023/03/25 05:58:35;;;;;;;11.90;1.10;;;;;;;;;;5020029;28;20497;-45
2023/03/25 06:01:03;;;;;;;6.50;0.65;;;;;;;;;;5017967;28;20377;-47
2023/03/25 06:03:33;;;;;;;5.90;0.80;;;;;;;;;;5013372;28;20045;-47
2023/03/25 06:06:04;;;;;;;7.45;1.20;;;;;;;;;;5012398;28;20079;-45
2023/03/25 06:08:34;;;;;;;4.78;0.70;;;;;;;;;;5012220;28;20630;-48
2023/03/25 06:11:03;;;;;;;7.32;0.55;;;;;;;;;;5021403;28;20115;-45
2023/03/25 06:13:32;;;;;;;4.07;0.40;;;;;;;;;;5007327;28;20046;-45
2023/03/25 06:16:01;;;;;;;10.47;0.83;;;;;;;;;;5003598;28;20029;-46
2023/03/25 06:18:29;;;;;;;5.78;0.52;;;;;;;;;;5007290;28;20045;-46
2023/03/25 06:20:58;;;;;;;8.73;0.93;;;;;;;;;;5010976;28;20460;-47
2023/03/25 06:23:27;;;;;;;5.20;0.85;;;;;;;;;;5015369;28;20390;-45
2023/03/25 06:25:57;;;;;;;8.25;1.42;;;;;;;;;;5022237;28;20094;-45
2023/03/25 06:28:25;;;;;;;3.13;0.40;;;;;;;;;;5011855;28;20056;-44
2023/03/25 06:30:52;;;;;;;8.10;0.63;;;;;;;;;;5012391;28;20067;-44
2023/03/25 06:33:20;;;;;;;13.13;0.85;;;;;;;;;;5028459;28;20041;-45
2023/03/25 06:36:08;;;;;;;7.72;0.70;;;;;;;;;;4994382;28;20564;-44
2023/03/25 06:38:42;;;;;;;5.28;0.68;;;;;;;;;;5010381;28;20865;-45
2023/03/25 06:41:10;;;;;;;8.17;0.80;;;;;;;;;;5009683;28;20112;-47
2023/03/25 06:43:38;;;;;;;9.48;0.68;;;;;;;;;;4997098;28;20045;-45
2023/03/25 06:46:06;;;;;;;4.93;0.60;;;;;;;;;;5022342;28;20471;-45
2023/03/25 06:48:35;;;;;;;10.38;1.35;;;;;;;;;;5000624;28;20073;-45
2023/03/25 06:51:04;;;;;;;5.95;0.82;;;;;;;;;;5017995;28;20076;-45
2023/03/25 06:53:32;;;;;;;9.13;0.60;;;;;;;;;;5006901;28;20779;-45
2023/03/25 06:56:01;;;;;;;6.20;0.70;;;;;;;;;;5010702;28;20037;-46
2023/03/25 06:58:33;;;;;;;7.30;1.05;;;;;;;;;;5017638;28;20036;-44
2023/03/25 07:01:05;;;;;;;9.40;0.88;;;;;;;;;;5005114;28;20052;-44
2023/03/25 07:03:35;;;;;;;20.15;1.50;;;;;;;;;;5005012;28;20095;-47
2023/03/25 07:06:03;;;;;;;6.47;0.80;;;;;;;;;;5020407;28;20033;-45
2023/03/25 07:08:31;;;;;;;11.13;0.90;;;;;;;;;;5018194;28;20048;-47
2023/03/25 07:11:04;;;;;;;14.98;0.88;;;;;;;;;;5013307;28;20519;-46
2023/03/25 07:13:32;;;;;;;5.25;0.75;;;;;;;;;;5013250;28;20064;-44
2023/03/25 07:16:00;;;;;;;8.25;0.57;;;;;;;;;;5014132;28;20094;-47
2023/03/25 07:18:29;;;;;;;8.67;1.30;;;;;;;;;;5002780;28;20504;-45
2023/03/25 07:20:57;;;;;;;10.05;1.00;;;;;;;;;;5012030;28;20494;-45
2023/03/25 07:23:25;;;;;;;4.35;0.57;;;;;;;;;;4997047;28;20041;-44
2023/03/25 07:25:54;;;;;;;7.25;0.80;;;;;;;;;;5018307;28;20033;-46
2023/03/25 07:28:23;;;;;;;18.83;1.25;;;;;;;;;;5005535;28;20711;-45
2023/03/25 07:30:50;;;;;;;14.10;1.20;;;;;;;;;;5015364;28;20458;-48
2023/03/25 07:33:36;;;;;;;8.85;1.48;;;;;;;;;;5018405;28;20442;-46
2023/03/25 07:36:04;;;;;;;11.25;1.35;;;;;;;;;;4993719;28;20128;-44
2023/03/25 07:38:32;;;;;;;12.35;0.90;;;;;;;;;;5013348;28;20047;-44
2023/03/25 07:41:04;;;;;;;9.63;1.40;;;;;;;;;;5021224;28;20065;-45
2023/03/25 07:43:39;;;;;;;12.90;1.53;;;;;;;;;;5002551;28;20051;-45
2023/03/25 07:46:06;;;;;;;10.20;1.05;;;;;;;;;;5014226;28;20079;-44
2023/03/25 07:48:35;;;;;;;13.70;1.17;;;;;;;;;;5003848;28;20037;-44
2023/03/25 07:51:03;;;;;;;12.00;1.00;;;;;;;;;;5016525;28;20140;-44
2023/03/25 07:53:32;;;;;;;15.63;1.60;;;;;;;;;;5006127;28;20094;-44
2023/03/25 07:56:00;;;;;;;9.37;1.23;;;;;;;;;;5011677;28;20116;-47
2023/03/25 07:58:27;;;;;;;8.45;1.00;;;;;;;;;;5011657;28;20094;-45
2023/03/25 08:00:57;;;;;;;8.70;0.68;;;;;;;;;;5015661;28;20043;-47
2023/03/25 08:03:26;;;;;;;7.07;0.85;;;;;;;;;;5009058;28;20547;-45
2023/03/25 08:05:54;;;;;;;12.75;1.42;;;;;;;;;;5015530;28;20047;-45
2023/03/25 08:08:22;;;;;;;10.17;0.73;;;;;;;;;;5006321;28;20480;-44
2023/03/25 08:10:51;;;;;;;13.32;1.90;;;;;;;;;;5008338;28;20116;-45
2023/03/25 08:13:18;;;;;;;9.05;1.33;;;;;;;;;;5007131;28;20037;-44
2023/03/25 08:15:46;;;;;;;6.85;1.00;;;;;;;;;;5032290;28;20033;-47
2023/03/25 08:18:17;;;;;;;8.90;0.98;;;;;;;;;;4997148;28;20043;-46
2023/03/25 08:20:45;;;;;;;11.83;1.60;;;;;;;;;;5022351;28;20541;-46
2023/03/25 08:23:17;;;;;;;11.38;0.93;;;;;;;;;;5002756;28;20037;-46
2023/03/25 08:25:49;;;;;;;11.25;1.58;;;;;;;;;;5017931;28;20041;-47
2023/03/25 08:28:21;;;;;;;6.80;1.15;;;;;;;;;;5014700;28;20047;-44
2023/03/25 08:30:53;;;;;;;9.90;1.13;;;;;;;;;;5007058;28;20081;-46
2023/03/25 08:33:25;;;;;;;8.87;1.10;;;;;;;;;;5019166;28;20033;-46
2023/03/25 08:35:56;;;;;;;11.85;1.20;;;;;;;;;;5001849;28;20060;-48
2023/03/25 08:38:30;;;;;;;5.93;0.60;;;;;;;;;;5000351;28;20045;-47
2023/03/25 08:41:01;;;;;;;5.90;0.68;;;;;;;;;;5001377;28;20044;-47
2023/03/25 08:43:31;;;;;;;15.48;1.17;;;;;;;;;;5018935;28;20493;-46
2023/03/25 08:46:03;;;;;;;8.60;1.10;;;;;;;;;;5009684;28;20084;-48
2023/03/25 08:48:33;;;;;;;8.95;0.95;;;;;;;;;;5006851;28;20033;-45
2023/03/25 08:51:02;;;;;;;8.63;0.80;;;;;;;;;;5008348;28;20060;-49
2023/03/25 08:53:32;;;;;;;7.53;0.75;;;;;;;;;;5007888;28;20136;-47
2023/03/25 08:55:59;;;;;;;7.18;0.90;;;;;;;;;;5009405;28;20083;-44
2023/03/25 08:58:27;;;;;;;7.57;0.90;;;;;;;;;;5012358;28;20494;-46
2023/03/25 09:00:55;;;;;;;6.65;1.30;;;;;;;;;;5022045;28;20041;-44
2023/03/25 09:03:23;;;;;;;11.68;0.90;;;;;;;;;;5002970;28;20048;-44
2023/03/25 09:05:52;;;;;;;8.02;1.10;;;;;;;;;;5019340;28;20044;-44
2023/03/25 09:08:20;;;;;;;11.38;1.65;;;;;;;;;;4993756;28;20040;-44
2023/03/25 09:10:48;;;;;;;4.97;0.83;;;;;;;;;;5008357;28;20527;-46
2023/03/25 09:13:16;;;;;;;7.63;1.17;;;;;;;;;;5004963;28;20041;-44
2023/03/25 09:15:45;;;;;;;7.35;0.93;;;;;;;;;;5014280;28;20041;-46
2023/03/25 09:18:13;;;;;;;14.00;1.10;;;;;;;;;;4993252;28;20447;-44
2023/03/25 09:20:41;;;;;;;7.75;1.13;;;;;;;;;;5013561;28;20049;-44
2023/03/25 09:23:10;;;;;;;7.33;0.70;;;;;;;;;;5002981;28;20152;-44
2023/03/25 09:25:38;;;;;;;8.27;0.55;;;;;;;;;;5016868;28;20916;-44
2023/03/25 09:28:06;;;;;;;3.88;0.70;;;;;;;;;;5011205;28;20036;-43
2023/03/25 09:30:34;;;;;;;9.45;0.93;;;;;;;;;;4998069;28;20608;-47
2023/03/25 09:33:01;;;;;;;7.75;0.90;;;;;;;;;;5015817;28;20838;-46
2023/03/25 09:35:29;;;;;;;3.17;0.60;;;;;;;;;;4999627;28;20145;-45
2023/03/25 09:37:57;;;;;;;13.73;0.82;;;;;;;;;;5011139;28;20518;-45
2023/03/25 09:40:26;;;;;;;3.38;0.50;;;;;;;;;;5005661;28;20045;-46
2023/03/25 09:42:58;;;;;;;2.90;0.50;;;;;;;;;;5017842;28;20037;-47
2023/03/25 09:45:30;;;;;;;5.88;0.60;;;;;;;;;;4987786;28;20136;-44
2023/03/25 09:48:00;;;;;;;1.77;0.30;;;;;;;;;;5013651;28;20397;-46
2023/03/25 09:50:29;;;;;;;4.22;0.70;;;;;;;;;;5004094;28;20129;-46
2023/03/25 09:52:59;;;;;;;6.82;0.60;;;;;;;;;;5026351;28;20064;-45
2023/03/25 09:55:31;;;;;;;2.78;0.30;;;;;;;;;;4998491;28;20071;-48
2023/03/25 09:58:02;;;;;;;9.68;0.95;;;;;;;;;;5020277;28;20128;-44
2023/03/25 10:00:30;;;;;;;9.30;1.20;;;;;;;;;;5001614;28;20046;-44
2023/03/25 10:03:03;;;;;;;8.32;0.73;;;;;;;;;;5005231;28;20037;-44
2023/03/25 10:05:48;;;;;;;6.72;1.05;;;;;;;;;;4990176;28;20491;-45
2023/03/25 10:08:20;;;;;;;7.30;0.93;;;;;;;;;;5008021;28;20132;-46
2023/03/25 10:10:52;;;;;;;5.47;1.48;;;;;;;;;;5012130;28;20033;-45
2023/03/25 10:13:27;;;;;;;6.70;0.60;;;;;;;;;;5019932;28;20080;-45
2023/03/25 10:15:57;;;;;;;12.55;3.22;;;;;;;;;;5014222;28;20045;-44
2023/03/25 10:18:33;;;;;;;6.60;0.77;;;;;;;;;;5005278;28;20581;-45
2023/03/25 10:21:03;;;;;;;6.65;0.93;;;;;;;;;;5009211;28;20112;-50
2023/03/25 10:23:34;;;;;;;6.50;0.93;;;;;;;;;;5003668;28;20235;-46
2023/03/25 10:26:05;;;;;;;4.20;0.50;;;;;;;;;;5038177;28;20037;-44
2023/03/25 10:28:37;;;;;;;10.25;1.45;;;;;;;;;;5005257;28;20330;-45
2023/03/25 10:31:06;;;;;;;9.70;0.88;;;;;;;;;;5017096;28;20078;-44
2023/03/25 10:33:36;;;;;;;4.72;1.05;;;;;;;;;;5021608;28;20473;-44
2023/03/25 10:36:06;;;;;;;14.52;0.90;;;;;;;;;;5003163;28;20120;-47
2023/03/25 10:38:42;;;;;;;8.50;1.33;;;;;;;;;;5017359;28;20490;-45
2023/03/25 10:41:16;;;;;;;7.30;0.80;;;;;;;;;;5014806;28;20503;-47
2023/03/25 10:43:44;;;;;;;4.75;0.43;;;;;;;;;;5008245;28;20128;-46
2023/03/25 10:46:16;;;;;;;5.72;1.02;;;;;;;;;;5020306;28;20081;-47
2023/03/25 10:48:45;;;;;;;5.95;1.27;;;;;;;;;;5005562;28;20862;-50
2023/03/25 10:51:15;;;;;;;24.65;1.25;;;;;;;;;;4311282;28;10020704;-47
2023/03/25 10:53:45;;;;;;;3.77;1.00;;;;;;;;;;5005798;28;20439;-45
2023/03/25 10:56:15;;;;;;;6.80;0.73;;;;;;;;;;5003665;28;20607;-45
2023/03/25 10:58:45;;;;;;;5.60;0.50;;;;;;;;;;5009379;28;20385;-46
2023/03/25 11:01:14;;;;;;;10.55;1.15;;;;;;;;;;5019547;28;20478;-45
2023/03/25 11:03:42;;;;;;;2.85;0.60;;;;;;;;;;5005463;28;20037;-45
2023/03/25 11:06:17;;;;;;;8.63;0.70;;;;;;;;;;5014394;28;20596;-45
2023/03/25 11:08:56;;;;;;;5.45;0.73;;;;;;;;;;4986149;28;20041;-48
2023/03/25 11:11:32;;;;;;;8.18;1.10;;;;;;;;;;5018001;28;20038;-46
2023/03/25 11:14:01;;;;;;;12.32;1.13;;;;;;;;;;4994954;28;20150;-46
2023/03/25 11:16:32;;;;;;;4.55;1.27;;;;;;;;;;4998869;28;20550;-45
2023/03/25 11:19:16;;;;;;;9.57;0.93;;;;;;;;;;5005292;28;20495;-46
2023/03/25 11:21:46;;;;;;;5.38;0.93;;;;;;;;;;5002773;28;20124;-47
2023/03/25 11:24:15;;;;;;;8.60;0.93;;;;;;;;;;5007713;28;20049;-45
2023/03/25 11:26:45;;;;;;;5.05;0.93;;;;;;;;;;5012438;28;20448;-48
2023/03/25 11:29:14;;;;;;;2.93;0.60;;;;;;;;;;4653217;28;9999862;-45
2023/03/25 11:31:42;;;;;;;7.03;1.03;;;;;;;;;;4998928;28;20380;-46
2023/03/25 11:34:18;;;;;;;6.85;0.80;;;;;;;;;;5019846;28;20036;-45
2023/03/25 11:36:48;;;;;;;4.00;0.70;;;;;;;;;;5000859;28;20128;-47
2023/03/25 11:39:18;;;;;;;7.80;1.00;;;;;;;;;;4995879;28;20075;-46
2023/03/25 11:41:47;;;;;;;5.93;0.47;;;;;;;;;;4992825;28;20037;-49
2023/03/25 11:44:21;;;;;;;6.30;0.77;;;;;;;;;;5013768;28;20041;-47
2023/03/25 11:46:50;;;;;;;7.82;1.20;;;;;;;;;;4978355;28;20739;-48
2023/03/25 11:49:20;;;;;;;6.47;1.27;;;;;;;;;;5012345;28;20037;-47
2023/03/25 11:51:49;;;;;;;9.52;1.17;;;;;;;;;;4989723;28;20072;-46
2023/03/25 11:54:19;;;;;;;7.77;1.57;;;;;;;;;;4639798;28;10000537;-45
2023/03/25 11:56:49;;;;;;;5.35;0.88;;;;;;;;;;5008167;28;20140;-45
2023/03/25 11:59:19;;;;;;;4.80;0.40;;;;;;;;;;5000606;28;20044;-50
2023/03/25 12:01:47;;;;;;;6.13;0.82;;;;;;;;;;5004800;28;20511;-46
2023/03/25 12:04:17;;;;;;;5.07;0.60;;;;;;;;;;5013503;28;20140;-47
2023/03/25 12:06:56;;;;;;;9.60;1.10;;;;;;;;;;5020993;28;20037;-47
2023/03/25 12:09:24;;;;;;;5.05;0.63;;;;;;;;;;5029002;28;20045;-49
2023/03/25 12:12:05;;;;;;;7.53;0.82;;;;;;;;;;4663286;28;10000320;-46
2023/03/25 12:14:41;;;;;;;6.17;0.90;;;;;;;;;;5013168;28;20134;-46
2023/03/25 12:17:15;;;;;;;4.45;0.57;;;;;;;;;;5003582;28;20124;-46
2023/03/25 12:19:48;;;;;;;4.95;0.55;;;;;;;;;;5010600;28;20045;-47
2023/03/25 12:22:23;;;;;;;4.30;0.75;;;;;;;;;;5014557;28;20029;-49
2023/03/25 12:24:59;;;;;;;6.38;0.47;;;;;;;;;;5014084;28;20060;-47
2023/03/25 12:27:35;;;;;;;2.93;0.40;;;;;;;;;;5005336;28;20045;-46
2023/03/25 12:30:08;;;;;;;3.85;0.80;;;;;;;;;;5018630;28;20086;-48
2023/03/25 12:32:40;;;;;;;3.75;0.32;;;;;;;;;;4999343;28;20115;-50
2023/03/25 12:35:23;;;;;;;7.35;0.60;;;;;;;;;;5011594;28;20046;-46
2023/03/25 12:38:01;;;;;;;4.32;0.30;;;;;;;;;;5019174;28;20059;-47
2023/03/25 12:40:37;;;;;;;8.13;0.53;;;;;;;;;;5004944;28;20044;-46
2023/03/25 12:43:09;;;;;;;3.67;0.50;;;;;;;;;;5020901;28;20037;-48
2023/03/25 12:45:44;;;;;;;4.70;0.50;;;;;;;;;;4999880;28;20415;-49
2023/03/25 12:48:16;;;;;;;5.03;0.47;;;;;;;;;;5018969;28;20041;-48
2023/03/25 12:50:51;;;;;;;6.80;1.00;;;;;;;;;;5004725;28;20033;-47
2023/03/25 12:53:31;;;;;;;8.60;0.60;;;;;;;;;;5010025;28;20106;-47
2023/03/25 12:56:05;;;;;;;4.80;0.60;;;;;;;;;;5013070;28;20076;-49
2023/03/25 12:58:44;;;;;;;6.07;0.82;;;;;;;;;;5014366;28;20052;-50
2023/03/25 13:01:16;;;;;;;5.05;0.77;;;;;;;;;;4986929;28;20076;-47
2023/03/25 13:04:00;;;;;;;6.72;0.60;;;;;;;;;;5017729;28;20261;-48
2023/03/25 13:06:30;;;;;;;2.97;0.70;;;;;;;;;;5001110;28;20838;-46
2023/03/25 13:08:59;;;;;;;5.28;0.80;;;;;;;;;;4993648;28;20758;-47
2023/03/25 13:11:30;;;;;;;4.55;0.57;;;;;;;;;;5001124;28;20119;-47
2023/03/25 13:14:01;;;;;;;5.22;0.70;;;;;;;;;;5014284;28;20381;-48
2023/03/25 13:16:31;;;;;;;6.03;0.60;;;;;;;;;;5013998;28;20049;-48
2023/03/25 13:19:03;;;;;;;6.63;0.70;;;;;;;;;;5016384;28;20128;-46
2023/03/25 13:21:33;;;;;;;5.10;0.73;;;;;;;;;;5010706;28;20048;-50
2023/03/25 13:24:03;;;;;;;6.43;0.50;;;;;;;;;;5009160;28;21017;-47
2023/03/25 13:26:31;;;;;;;4.05;0.43;;;;;;;;;;5013696;28;21293;-47
2023/03/25 13:29:02;;;;;;;4.82;0.60;;;;;;;;;;5011343;28;20041;-47
2023/03/25 13:31:34;;;;;;;4.67;0.70;;;;;;;;;;5010449;28;20090;-46
2023/03/25 13:34:08;;;;;;;4.97;0.50;;;;;;;;;;5014892;28;20129;-46
2023/03/25 13:36:40;;;;;;;5.60;0.70;;;;;;;;;;4998316;28;20473;-47
2023/03/25 13:39:13;;;;;;;7.43;0.77;;;;;;;;;;5010575;28;20083;-47
2023/03/25 13:41:43;;;;;;;7.80;0.90;;;;;;;;;;5013747;28;20033;-49
2023/03/25 13:44:14;;;;;;;6.13;0.90;;;;;;;;;;5015788;28;20052;-47
2023/03/25 13:46:50;;;;;;;7.80;0.80;;;;;;;;;;5017252;28;20124;-46
2023/03/25 13:49:21;;;;;;;4.72;0.60;;;;;;;;;;5024323;28;20140;-49
2023/03/25 13:51:52;;;;;;;2.83;0.50;;;;;;;;;;5007587;28;20371;-45
2023/03/25 13:54:22;;;;;;;9.57;0.73;;;;;;;;;;5013827;28;20041;-47
2023/03/25 13:57:14;;;;;;;6.20;0.97;;;;;;;;;;5018899;28;20336;-47
2023/03/25 13:59:55;;;;;;;3.55;0.50;;;;;;;;;;4986931;28;20037;-47
2023/03/25 14:02:34;;;;;;;5.40;0.80;;;;;;;;;;5009704;28;20038;-46
2023/03/25 14:05:36;;;;;;;9.93;1.10;;;;;;;;;;5006753;28;20048;-49
2023/03/25 14:08:19;;;;;;;3.03;0.45;;;;;;;;;;4977774;28;20041;-50
2023/03/25 14:10:53;;;;;;;2.13;0.53;;;;;;;;;;4999396;28;20053;-48
2023/03/25 14:13:23;;;;;;;3.42;0.30;;;;;;;;;;4660754;28;10000414;-47
2023/03/25 14:15:55;;;;;;;6.77;0.50;;;;;;;;;;5016953;28;20075;-48
2023/03/25 14:18:23;;;;;;;8.02;0.57;;;;;;;;;;4663338;28;10000319;-46
2023/03/25 14:20:51;;;;;;;5.90;0.43;;;;;;;;;;5024810;28;20045;-46
2023/03/25 14:23:21;;;;;;;4.55;0.60;;;;;;;;;;5011082;28;20045;-47
2023/03/25 14:25:56;;;;;;;2.57;0.40;;;;;;;;;;5016512;28;20124;-46
2023/03/25 14:28:33;;;;;;;7.32;0.52;;;;;;;;;;4995481;28;20541;-46
2023/03/25 14:31:10;;;;;;;5.47;0.60;;;;;;;;;;5002525;28;20119;-50
2023/03/25 14:34:05;;;;;;;7.85;0.60;;;;;;;;;;5016445;28;20044;-48
2023/03/25 14:36:54;;;;;;;4.03;0.60;;;;;;;;;;5008293;28;20056;-46
2023/03/25 15:05:41;;;;;;;4.15;0.80;;;;;;;;;;6180442;23;20308;-46
2023/03/25 15:08:15;;;;;;;6.33;0.77;;;;;;;;;;6192137;23;20017;-47
2023/03/25 15:10:43;;;;;;;6.28;0.90;;;;;;;;;;6183341;23;20474;-46
2023/03/25 15:13:13;;;;;;;7.47;0.75;;;;;;;;;;6180204;23;20016;-46
2023/03/25 15:15:56;;;;;;;5.00;0.60;;;;;;;;;;6172683;23;20225;-46
2023/03/25 15:18:45;;;;;;;3.83;0.57;;;;;;;;;;6173271;23;20020;-47
2023/03/25 15:21:16;;;;;;;5.47;0.80;;;;;;;;;;6180426;23;20909;-48
2023/03/25 15:23:45;;;;;;;9.85;0.88;;;;;;;;;;6176906;23;20027;-48
2023/03/25 15:26:14;;;;;;;8.20;0.70;;;;;;;;;;6139181;23;20480;-48
2023/03/25 15:28:59;;;;;;;7.97;0.60;;;;;;;;;;6178646;23;20498;-47